Time;durP1;ratioP1;P1;durP2;ratioP2;P2;SDS_P1;SDS_P2;PMS_P1;PMS_P2;Temp;Humidity;BMP_temperature;BMP_pressure;BME280_temperature;BME280_humidity;BME280_pressure;Samples;Min_cycle;Max_cycle;Signal;HPM_P1;HPM_P2
2020/12/10 00:01:50;;;;;;;27.70;16.67;;;;;;;;;;5033293;28;20174;-65
2020/12/10 00:04:16;;;;;;;27.00;16.97;;;;;;;;;;5033401;28;20179;-65
2020/12/10 00:06:42;;;;;;;32.70;17.07;;;;;;;;;;5033755;28;20562;-66
2020/12/10 00:09:07;;;;;;;28.27;17.20;;;;;;;;;;5033275;28;20313;-65
2020/12/10 00:11:34;;;;;;;29.03;17.27;;;;;;;;;;5033368;28;20190;-66
2020/12/10 00:14:00;;;;;;;30.47;17.53;;;;;;;;;;5037211;28;20194;-66
2020/12/10 00:16:26;;;;;;;28.43;16.37;;;;;;;;;;5037536;28;20599;-66
2020/12/10 00:18:51;;;;;;;26.47;16.47;;;;;;;;;;5037397;28;20269;-66
2020/12/10 00:21:20;;;;;;;28.23;16.63;;;;;;;;;;5037275;28;20185;-65
2020/12/10 00:23:46;;;;;;;28.23;16.70;;;;;;;;;;5037364;28;20171;-66
2020/12/10 00:26:11;;;;;;;29.10;16.67;;;;;;;;;;5037118;28;20538;-66
2020/12/10 00:28:36;;;;;;;27.53;16.90;;;;;;;;;;5037207;28;20191;-66
2020/12/10 00:31:02;;;;;;;23.13;15.10;;;;;;;;;;5037147;28;20225;-66
2020/12/10 00:33:27;;;;;;;26.97;16.40;;;;;;;;;;5037002;28;20191;-66
2020/12/10 00:35:52;;;;;;;27.10;15.53;;;;;;;;;;5037168;28;20178;-66
2020/12/10 00:38:17;;;;;;;27.53;16.23;;;;;;;;;;5037049;28;20266;-66
2020/12/10 00:40:43;;;;;;;26.83;16.13;;;;;;;;;;5037227;28;20177;-66
2020/12/10 00:43:08;;;;;;;25.90;15.30;;;;;;;;;;5036867;28;20541;-66
2020/12/10 00:45:33;;;;;;;27.60;16.27;;;;;;;;;;5037192;28;20190;-66
2020/12/10 00:47:58;;;;;;;29.10;16.70;;;;;;;;;;5036900;28;20171;-66
2020/12/10 00:50:24;;;;;;;23.97;15.13;;;;;;;;;;5036801;28;20221;-66
2020/12/10 00:52:49;;;;;;;25.73;16.10;;;;;;;;;;5036931;28;20203;-67
2020/12/10 00:55:14;;;;;;;27.43;15.53;;;;;;;;;;5036950;28;20186;-67
2020/12/10 00:57:42;;;;;;;26.60;15.13;;;;;;;;;;5036884;28;20179;-67
2020/12/10 01:00:08;;;;;;;26.93;15.70;;;;;;;;;;5036781;28;20190;-66
2020/12/10 01:02:33;;;;;;;28.73;15.93;;;;;;;;;;5036679;28;20272;-66
2020/12/10 01:04:58;;;;;;;23.67;15.30;;;;;;;;;;5036558;28;20651;-66
2020/12/10 01:07:24;;;;;;;27.07;16.07;;;;;;;;;;5036320;28;20230;-65
2020/12/10 01:09:49;;;;;;;23.03;14.43;;;;;;;;;;5036448;28;20179;-65
2020/12/10 01:12:14;;;;;;;25.03;15.20;;;;;;;;;;5036412;28;20261;-66
2020/12/10 01:14:40;;;;;;;25.87;15.23;;;;;;;;;;5036405;28;20210;-66
2020/12/10 01:17:05;;;;;;;24.17;15.67;;;;;;;;;;5036519;28;20191;-66
2020/12/10 01:19:30;;;;;;;24.80;15.80;;;;;;;;;;5036267;28;20666;-66
2020/12/10 01:21:56;;;;;;;23.53;15.37;;;;;;;;;;5036436;28;20427;-66
2020/12/10 01:24:21;;;;;;;24.30;15.00;;;;;;;;;;5035893;28;20619;-65
2020/12/10 01:26:46;;;;;;;25.43;15.43;;;;;;;;;;5036134;28;20187;-65
2020/12/10 01:29:12;;;;;;;25.77;15.60;;;;;;;;;;5036117;28;20175;-65
2020/12/10 01:31:37;;;;;;;22.63;14.37;;;;;;;;;;5036506;28;20198;-65
2020/12/10 01:34:02;;;;;;;23.90;14.67;;;;;;;;;;5035991;28;20656;-66
2020/12/10 01:36:30;;;;;;;22.53;14.50;;;;;;;;;;5035900;28;20191;-65
2020/12/10 01:38:55;;;;;;;23.47;14.40;;;;;;;;;;5035923;28;20179;-64
2020/12/10 01:41:27;;;;;;;24.13;14.40;;;;;;;;;;5035884;28;20312;-66
2020/12/10 01:44:03;;;;;;;22.90;14.00;;;;;;;;;;5035837;28;20163;-65
2020/12/10 01:46:28;;;;;;;22.23;14.00;;;;;;;;;;5035911;28;20178;-66
2020/12/10 01:48:53;;;;;;;23.20;14.90;;;;;;;;;;5035864;28;20194;-66
2020/12/10 01:51:19;;;;;;;21.47;14.03;;;;;;;;;;5035593;28;20181;-65
2020/12/10 01:53:44;;;;;;;22.57;14.07;;;;;;;;;;5035521;28;20191;-65
2020/12/10 01:56:09;;;;;;;23.17;14.20;;;;;;;;;;5035543;28;20194;-66
2020/12/10 01:58:35;;;;;;;23.13;14.00;;;;;;;;;;5035595;28;20270;-66
2020/12/10 02:01:01;;;;;;;23.17;14.27;;;;;;;;;;5035672;28;20225;-66
2020/12/10 02:03:26;;;;;;;22.43;14.17;;;;;;;;;;5035450;28;20175;-66
2020/12/10 02:05:51;;;;;;;23.33;14.30;;;;;;;;;;5035368;28;20274;-66
2020/12/10 02:08:17;;;;;;;22.57;14.20;;;;;;;;;;5035282;28;20222;-66
2020/12/10 02:10:42;;;;;;;20.17;12.67;;;;;;;;;;5035395;28;20225;-66
2020/12/10 02:13:08;;;;;;;20.13;13.50;;;;;;;;;;5035217;28;20202;-65
2020/12/10 02:15:33;;;;;;;20.33;13.37;;;;;;;;;;5035590;28;20191;-66
2020/12/10 02:18:04;;;;;;;20.93;13.63;;;;;;;;;;5035335;28;20216;-66
2020/12/10 02:20:30;;;;;;;21.33;13.60;;;;;;;;;;5035405;28;20167;-65
2020/12/10 02:23:00;;;;;;;22.10;14.13;;;;;;;;;;5035052;28;20210;-65
2020/12/10 02:25:25;;;;;;;20.83;12.80;;;;;;;;;;5035268;28;20186;-65
2020/12/10 02:27:51;;;;;;;20.83;13.77;;;;;;;;;;5035242;28;20241;-64
2020/12/10 02:30:16;;;;;;;21.97;13.30;;;;;;;;;;5034878;28;20210;-65
2020/12/10 02:32:41;;;;;;;19.43;13.20;;;;;;;;;;5035130;28;20197;-64
2020/12/10 02:35:06;;;;;;;18.37;12.43;;;;;;;;;;5034076;28;20179;-66
2020/12/10 02:37:32;;;;;;;22.03;13.47;;;;;;;;;;5035235;28;20181;-65
2020/12/10 02:39:57;;;;;;;19.73;13.20;;;;;;;;;;5034714;28;20186;-65
2020/12/10 02:42:23;;;;;;;18.67;12.97;;;;;;;;;;5034632;28;20210;-64
2020/12/10 02:44:48;;;;;;;18.93;12.53;;;;;;;;;;5034962;28;20662;-65
2020/12/10 02:47:14;;;;;;;18.57;12.10;;;;;;;;;;5034654;28;20214;-65
2020/12/10 02:49:39;;;;;;;22.83;14.07;;;;;;;;;;5034477;28;20186;-65
2020/12/10 02:52:04;;;;;;;20.77;13.47;;;;;;;;;;5034609;28;20171;-64
2020/12/10 02:54:29;;;;;;;19.90;14.00;;;;;;;;;;5034399;28;20199;-66
2020/12/10 02:56:55;;;;;;;20.43;12.57;;;;;;;;;;5034453;28;20542;-66
2020/12/10 02:59:25;;;;;;;20.77;13.17;;;;;;;;;;5034539;28;20181;-66
2020/12/10 03:01:53;;;;;;;19.97;13.60;;;;;;;;;;5034315;28;20237;-66
2020/12/10 03:04:19;;;;;;;18.70;12.00;;;;;;;;;;5034330;28;20206;-66
2020/12/10 03:06:44;;;;;;;22.03;13.93;;;;;;;;;;5034278;28;20276;-66
2020/12/10 03:09:09;;;;;;;18.17;12.53;;;;;;;;;;5034233;28;20230;-66
2020/12/10 03:11:35;;;;;;;20.10;13.43;;;;;;;;;;5034192;28;20182;-66
2020/12/10 03:14:00;;;;;;;18.73;13.00;;;;;;;;;;5033978;28;20289;-66
2020/12/10 03:16:25;;;;;;;18.23;12.37;;;;;;;;;;5034111;28;20179;-66
2020/12/10 03:18:50;;;;;;;19.30;13.10;;;;;;;;;;5033927;28;20175;-65
2020/12/10 03:21:16;;;;;;;18.87;12.57;;;;;;;;;;5034128;28;20171;-67
2020/12/10 03:23:41;;;;;;;17.33;11.83;;;;;;;;;;5033908;28;20175;-66
2020/12/10 03:26:06;;;;;;;18.60;12.73;;;;;;;;;;5033937;28;20273;-66
2020/12/10 03:28:31;;;;;;;17.77;12.67;;;;;;;;;;5033905;28;20186;-67
2020/12/10 03:30:57;;;;;;;19.30;13.20;;;;;;;;;;5033785;28;20189;-67
2020/12/10 03:33:22;;;;;;;19.10;13.70;;;;;;;;;;5033792;28;20206;-67
2020/12/10 03:35:47;;;;;;;20.23;13.40;;;;;;;;;;5033731;28;20221;-67
2020/12/10 03:38:12;;;;;;;18.07;12.60;;;;;;;;;;5033764;28;20174;-68
2020/12/10 03:40:38;;;;;;;17.70;12.57;;;;;;;;;;5033621;28;20174;-68
2020/12/10 03:43:03;;;;;;;17.77;12.57;;;;;;;;;;5033736;28;20175;-67
2020/12/10 03:45:28;;;;;;;18.07;13.43;;;;;;;;;;5033643;28;20185;-67
2020/12/10 03:47:54;;;;;;;17.87;12.00;;;;;;;;;;5033557;28;20211;-67
2020/12/10 03:50:19;;;;;;;17.40;12.80;;;;;;;;;;5033841;28;20224;-67
2020/12/10 03:52:44;;;;;;;18.80;12.67;;;;;;;;;;5033829;28;20210;-67
2020/12/10 03:55:10;;;;;;;18.40;13.00;;;;;;;;;;5033734;28;20704;-67
2020/12/10 03:57:35;;;;;;;20.07;13.57;;;;;;;;;;5033697;28;20215;-67
2020/12/10 04:00:00;;;;;;;18.17;12.83;;;;;;;;;;5033630;28;20174;-66
2020/12/10 04:02:25;;;;;;;17.60;12.80;;;;;;;;;;5033487;28;20270;-66
2020/12/10 04:04:51;;;;;;;18.50;12.63;;;;;;;;;;5033478;28;20175;-65
2020/12/10 04:07:16;;;;;;;17.87;12.67;;;;;;;;;;5033169;28;20293;-65
2020/12/10 04:09:41;;;;;;;16.83;12.27;;;;;;;;;;5033366;28;20186;-65
2020/12/10 04:12:07;;;;;;;20.53;13.77;;;;;;;;;;5033314;28;20662;-65
2020/12/10 04:14:32;;;;;;;20.17;13.53;;;;;;;;;;5033214;28;20197;-64
2020/12/10 04:16:57;;;;;;;19.70;13.03;;;;;;;;;;5033337;28;20574;-64
2020/12/10 04:19:23;;;;;;;19.53;14.27;;;;;;;;;;5033434;28;20179;-66
2020/12/10 04:21:48;;;;;;;19.07;13.27;;;;;;;;;;5033214;28;20308;-65
2020/12/10 04:24:14;;;;;;;18.33;12.43;;;;;;;;;;5033102;28;20182;-64
2020/12/10 04:26:39;;;;;;;18.60;13.00;;;;;;;;;;5033211;28;20186;-64
2020/12/10 04:29:04;;;;;;;18.73;13.70;;;;;;;;;;5033289;28;20179;-64
2020/12/10 04:31:29;;;;;;;18.17;12.63;;;;;;;;;;5033200;28;20178;-65
2020/12/10 04:33:55;;;;;;;19.00;13.40;;;;;;;;;;5033058;28;20206;-65
2020/12/10 04:36:20;;;;;;;20.10;13.53;;;;;;;;;;5033084;28;20577;-64
2020/12/10 04:38:45;;;;;;;19.53;13.57;;;;;;;;;;5033067;28;20167;-65
2020/12/10 04:41:11;;;;;;;16.57;12.40;;;;;;;;;;5033163;28;20206;-65
2020/12/10 04:43:36;;;;;;;20.67;13.57;;;;;;;;;;5032967;28;20743;-66
2020/12/10 04:46:04;;;;;;;18.70;13.63;;;;;;;;;;5033062;28;20175;-66
2020/12/10 04:48:32;;;;;;;20.57;13.77;;;;;;;;;;5032937;28;20182;-65
2020/12/10 04:51:00;;;;;;;18.07;13.33;;;;;;;;;;5033114;28;20301;-66
2020/12/10 04:53:26;;;;;;;17.47;13.13;;;;;;;;;;5033121;28;20195;-66
2020/12/10 04:55:54;;;;;;;18.70;13.70;;;;;;;;;;5033181;28;20183;-65
2020/12/10 04:58:19;;;;;;;19.00;13.13;;;;;;;;;;5034043;28;20228;-65
2020/12/10 05:00:44;;;;;;;18.03;13.30;;;;;;;;;;5036766;28;20273;-65
2020/12/10 05:03:10;;;;;;;19.03;14.03;;;;;;;;;;5036572;28;20167;-65
2020/12/10 05:05:36;;;;;;;19.80;14.10;;;;;;;;;;5036921;28;20206;-65
2020/12/10 05:08:02;;;;;;;20.43;13.63;;;;;;;;;;5036238;28;20276;-65
2020/12/10 05:10:28;;;;;;;18.30;13.23;;;;;;;;;;5036505;28;20233;-64
2020/12/10 05:13:20;;;;;;;18.17;13.37;;;;;;;;;;5036370;28;20198;-64
2020/12/10 05:15:45;;;;;;;18.50;13.43;;;;;;;;;;5035285;28;20725;-67
2020/12/10 05:18:12;;;;;;;20.70;14.63;;;;;;;;;;5036350;28;20175;-66
2020/12/10 05:20:45;;;;;;;20.37;14.03;;;;;;;;;;5036249;28;20182;-66
2020/12/10 05:23:12;;;;;;;19.03;13.57;;;;;;;;;;5036474;28;20583;-66
2020/12/10 05:25:51;;;;;;;19.47;13.27;;;;;;;;;;5036367;28;20716;-65
2020/12/10 05:28:18;;;;;;;20.97;14.57;;;;;;;;;;5036246;28;20174;-63
2020/12/10 05:30:45;;;;;;;20.57;14.60;;;;;;;;;;5036349;28;20178;-66
2020/12/10 05:33:14;;;;;;;18.47;14.03;;;;;;;;;;5036240;28;20663;-66
2020/12/10 05:35:40;;;;;;;21.20;14.60;;;;;;;;;;5036077;28;20183;-66
2020/12/10 05:38:13;;;;;;;21.10;14.13;;;;;;;;;;5036212;28;20267;-66
2020/12/10 05:40:39;;;;;;;20.63;14.00;;;;;;;;;;5036120;28;20233;-65
2020/12/10 05:43:06;;;;;;;20.20;13.80;;;;;;;;;;5035975;28;20196;-66
2020/12/10 05:45:37;;;;;;;19.83;14.40;;;;;;;;;;5035833;28;20175;-65
2020/12/10 05:48:02;;;;;;;22.20;14.83;;;;;;;;;;5036277;28;20178;-64
2020/12/10 05:50:32;;;;;;;22.23;15.10;;;;;;;;;;5035803;28;20179;-65
2020/12/10 05:53:12;;;;;;;21.73;15.17;;;;;;;;;;5035732;28;20648;-65
2020/12/10 05:55:44;;;;;;;21.93;15.27;;;;;;;;;;5035579;28;20551;-66
2020/12/10 05:58:09;;;;;;;20.90;14.90;;;;;;;;;;5035765;28;20214;-65
2020/12/10 06:00:36;;;;;;;20.80;14.43;;;;;;;;;;5035681;28;20183;-66
2020/12/10 06:03:03;;;;;;;19.60;14.13;;;;;;;;;;5035548;28;20182;-66
2020/12/10 06:05:29;;;;;;;22.10;15.07;;;;;;;;;;5035665;28;20182;-67
2020/12/10 06:08:04;;;;;;;20.70;14.27;;;;;;;;;;5035317;28;20709;-65
2020/12/10 06:10:35;;;;;;;21.20;14.93;;;;;;;;;;5034567;28;20193;-67
2020/12/10 06:13:01;;;;;;;22.67;15.23;;;;;;;;;;5035665;28;20202;-67
2020/12/10 06:15:27;;;;;;;21.97;15.90;;;;;;;;;;5035797;28;20674;-67
2020/12/10 06:18:04;;;;;;;22.90;15.13;;;;;;;;;;5035478;28;20243;-68
2020/12/10 06:20:34;;;;;;;22.77;15.10;;;;;;;;;;5035407;28;20200;-68
2020/12/10 06:23:33;;;;;;;20.63;15.17;;;;;;;;;;5035162;28;20190;-68
2020/12/10 06:26:19;;;;;;;21.57;15.00;;;;;;;;;;5034989;28;20159;-68
2020/12/10 06:28:45;;;;;;;21.93;14.43;;;;;;;;;;5034862;28;20214;-68
2020/12/10 06:31:12;;;;;;;22.63;15.23;;;;;;;;;;5034959;28;20201;-67
2020/12/10 06:33:40;;;;;;;21.53;15.27;;;;;;;;;;5035090;28;20217;-68
2020/12/10 06:36:22;;;;;;;19.53;14.53;;;;;;;;;;5035063;28;20193;-67
2020/12/10 06:38:49;;;;;;;19.57;13.80;;;;;;;;;;5035038;28;20523;-68
2020/12/10 06:41:15;;;;;;;18.83;13.80;;;;;;;;;;5034715;28;20182;-67
2020/12/10 06:43:40;;;;;;;21.00;14.57;;;;;;;;;;5034784;28;20178;-68
2020/12/10 06:46:06;;;;;;;20.23;14.47;;;;;;;;;;5034839;28;20182;-66
2020/12/10 06:48:43;;;;;;;21.83;15.00;;;;;;;;;;5034923;28;20186;-67
2020/12/10 06:51:13;;;;;;;22.33;14.43;;;;;;;;;;5034611;28;20274;-66
2020/12/10 06:53:39;;;;;;;19.33;14.03;;;;;;;;;;5034717;28;20591;-67
2020/12/10 06:56:10;;;;;;;19.67;14.47;;;;;;;;;;5034403;28;20229;-67
2020/12/10 06:58:40;;;;;;;19.83;14.20;;;;;;;;;;5034448;28;20167;-67
2020/12/10 07:01:26;;;;;;;19.83;14.20;;;;;;;;;;5034520;28;20252;-67
2020/12/10 07:04:07;;;;;;;21.33;14.47;;;;;;;;;;5030468;28;20600;-68
2020/12/10 07:06:32;;;;;;;19.93;12.93;;;;;;;;;;5034647;28;20213;-68
2020/12/10 07:09:08;;;;;;;17.37;12.00;;;;;;;;;;5033887;28;20251;-67
2020/12/10 07:11:39;;;;;;;16.87;11.97;;;;;;;;;;5034191;28;20182;-67
2020/12/10 07:14:25;;;;;;;17.80;11.63;;;;;;;;;;5034153;28;20202;-65
2020/12/10 07:16:50;;;;;;;16.70;11.40;;;;;;;;;;5034267;28;20190;-67
2020/12/10 07:19:16;;;;;;;18.53;11.60;;;;;;;;;;5034322;28;20623;-66
2020/12/10 07:21:41;;;;;;;20.70;10.97;;;;;;;;;;5033764;28;20659;-66
2020/12/10 07:24:06;;;;;;;16.20;11.03;;;;;;;;;;5034074;28;20178;-65
2020/12/10 07:26:32;;;;;;;17.53;11.10;;;;;;;;;;5034198;28;20194;-65
2020/12/10 07:28:58;;;;;;;17.10;11.23;;;;;;;;;;5034179;28;20178;-63
2020/12/10 07:31:23;;;;;;;14.90;10.63;;;;;;;;;;5034372;28;20525;-63
2020/12/10 07:33:53;;;;;;;15.47;11.27;;;;;;;;;;5034151;28;20619;-64
2020/12/10 07:36:19;;;;;;;18.83;11.60;;;;;;;;;;5034213;28;20167;-64
2020/12/10 07:38:45;;;;;;;17.50;11.90;;;;;;;;;;5034148;28;20249;-64
2020/12/10 07:41:10;;;;;;;16.37;11.57;;;;;;;;;;5034336;28;20243;-64
2020/12/10 07:43:49;;;;;;;15.30;11.43;;;;;;;;;;5034151;28;20174;-64
2020/12/10 07:46:15;;;;;;;15.33;10.90;;;;;;;;;;5034636;28;20562;-64
2020/12/10 07:48:42;;;;;;;16.00;11.67;;;;;;;;;;5034478;28;20178;-64
2020/12/10 07:51:07;;;;;;;15.40;11.27;;;;;;;;;;5033696;28;20229;-63
2020/12/10 07:53:33;;;;;;;15.87;11.33;;;;;;;;;;5033840;28;20663;-63
2020/12/10 07:56:02;;;;;;;15.37;10.57;;;;;;;;;;5034243;28;20278;-62
2020/12/10 07:58:34;;;;;;;15.67;11.63;;;;;;;;;;5033761;28;20183;-64
2020/12/10 08:01:03;;;;;;;18.30;11.10;;;;;;;;;;5033762;28;20194;-63
2020/12/10 08:04:15;;;;;;;22.63;11.27;;;;;;;;;;5033678;28;20224;-64
2020/12/10 08:06:42;;;;;;;17.03;10.63;;;;;;;;;;5031114;28;20213;-63
2020/12/10 08:09:08;;;;;;;15.17;11.07;;;;;;;;;;5033753;28;20378;-62
2020/12/10 08:11:33;;;;;;;15.30;11.13;;;;;;;;;;5033612;28;20301;-62
2020/12/10 08:14:08;;;;;;;13.30;10.37;;;;;;;;;;5033873;28;20202;-61
2020/12/10 08:16:45;;;;;;;17.63;10.40;;;;;;;;;;5033876;28;20217;-60
2020/12/10 08:19:16;;;;;;;16.23;10.40;;;;;;;;;;5034226;28;20182;-60
2020/12/10 08:21:43;;;;;;;16.13;10.23;;;;;;;;;;5034236;28;20210;-61
2020/12/10 08:24:09;;;;;;;16.90;10.63;;;;;;;;;;5034009;28;20186;-63
2020/12/10 08:26:34;;;;;;;15.63;10.43;;;;;;;;;;5033823;28;20178;-61
2020/12/10 08:29:00;;;;;;;13.33;9.70;;;;;;;;;;5033607;28;20191;-61
2020/12/10 08:31:27;;;;;;;14.67;10.13;;;;;;;;;;5033695;28;20174;-62
2020/12/10 08:33:53;;;;;;;13.47;9.37;;;;;;;;;;5036014;28;20677;-62
2020/12/10 08:36:28;;;;;;;18.77;10.20;;;;;;;;;;5037748;28;20212;-61
2020/12/10 08:38:54;;;;;;;17.10;9.60;;;;;;;;;;5037455;28;20610;-61
2020/12/10 08:41:29;;;;;;;17.83;9.90;;;;;;;;;;5037616;28;20206;-61
2020/12/10 08:43:59;;;;;;;21.33;10.43;;;;;;;;;;5037243;28;20182;-61
2020/12/10 08:46:24;;;;;;;17.97;9.80;;;;;;;;;;5037586;28;20237;-63
2020/12/10 08:48:50;;;;;;;12.97;9.67;;;;;;;;;;5036165;28;20179;-63
2020/12/10 08:51:16;;;;;;;15.33;9.87;;;;;;;;;;5037305;28;20266;-62
2020/12/10 08:53:49;;;;;;;13.77;8.87;;;;;;;;;;5037210;28;20199;-62
2020/12/10 08:56:20;;;;;;;15.07;9.60;;;;;;;;;;5037724;28;20206;-61
2020/12/10 08:58:46;;;;;;;12.60;8.47;;;;;;;;;;5037985;28;20167;-63
2020/12/10 09:01:11;;;;;;;12.10;9.13;;;;;;;;;;5037399;28;20209;-63
2020/12/10 09:03:36;;;;;;;13.43;8.77;;;;;;;;;;5037363;28;20535;-60
2020/12/10 09:06:02;;;;;;;11.70;8.63;;;;;;;;;;5036739;28;20199;-61
2020/12/10 09:08:27;;;;;;;12.73;9.60;;;;;;;;;;5036830;28;20248;-61
2020/12/10 09:10:52;;;;;;;12.27;9.13;;;;;;;;;;5036550;28;20214;-62
2020/12/10 09:13:18;;;;;;;13.63;8.97;;;;;;;;;;5036535;28;20226;-61
2020/12/10 09:15:43;;;;;;;10.33;8.23;;;;;;;;;;5036973;28;20187;-61
2020/12/10 09:18:10;;;;;;;11.87;8.90;;;;;;;;;;5036809;28;20651;-62
2020/12/10 09:20:35;;;;;;;15.17;9.97;;;;;;;;;;5036427;28;20191;-62
2020/12/10 09:23:01;;;;;;;15.33;9.47;;;;;;;;;;5036857;28;20236;-61
2020/12/10 09:25:26;;;;;;;16.17;10.00;;;;;;;;;;5036489;28;20573;-61
2020/12/10 09:27:51;;;;;;;14.23;10.13;;;;;;;;;;5036352;28;20262;-63
2020/12/10 09:30:16;;;;;;;14.13;9.67;;;;;;;;;;5036264;28;20231;-62
2020/12/10 09:32:42;;;;;;;13.97;9.20;;;;;;;;;;5036099;28;20547;-61
2020/12/10 09:35:12;;;;;;;14.77;9.47;;;;;;;;;;5036380;28;20653;-63
2020/12/10 09:37:39;;;;;;;14.38;9.30;;;;;;;;;;5036348;28;20182;-63
2020/12/10 09:40:07;;;;;;;13.48;9.05;;;;;;;;;;5036496;28;20186;-63
2020/12/10 09:42:44;;;;;;;13.53;9.50;;;;;;;;;;5036424;28;20182;-63
2020/12/10 09:45:09;;;;;;;13.03;9.63;;;;;;;;;;5036114;28;20182;-63
2020/12/10 09:47:35;;;;;;;12.87;8.97;;;;;;;;;;5035847;28;20179;-64
2020/12/10 09:50:01;;;;;;;14.13;9.13;;;;;;;;;;5036268;28;20232;-64
2020/12/10 09:52:27;;;;;;;14.30;9.67;;;;;;;;;;5035973;28;20178;-63
2020/12/10 09:55:05;;;;;;;14.73;9.37;;;;;;;;;;5036037;28;20187;-63
2020/12/10 09:57:31;;;;;;;12.63;8.43;;;;;;;;;;5036299;28;20232;-62
2020/12/10 09:59:58;;;;;;;15.90;8.97;;;;;;;;;;5035741;28;20194;-62
2020/12/10 10:02:23;;;;;;;15.57;9.27;;;;;;;;;;5036307;28;20201;-62
2020/12/10 10:04:49;;;;;;;12.53;9.40;;;;;;;;;;5035929;28;20174;-62
2020/12/10 10:07:15;;;;;;;12.07;8.53;;;;;;;;;;5036219;28;20663;-62
2020/12/10 10:09:41;;;;;;;11.40;8.80;;;;;;;;;;5036164;28;20175;-62
2020/12/10 10:12:06;;;;;;;11.50;8.23;;;;;;;;;;5035873;28;20179;-63
2020/12/10 10:14:32;;;;;;;14.07;8.60;;;;;;;;;;5035851;28;20203;-61
2020/12/10 10:16:58;;;;;;;13.63;8.07;;;;;;;;;;5035884;28;20189;-62
2020/12/10 10:19:24;;;;;;;14.90;8.67;;;;;;;;;;5034511;28;20250;-61
2020/12/10 10:21:49;;;;;;;10.87;8.13;;;;;;;;;;5035462;28;20179;-61
2020/12/10 10:24:14;;;;;;;10.73;8.35;;;;;;;;;;5036104;28;20179;-62
2020/12/10 10:26:40;;;;;;;14.77;9.10;;;;;;;;;;5035361;28;20659;-61
2020/12/10 10:29:08;;;;;;;15.47;8.77;;;;;;;;;;5035280;28;20183;-63
2020/12/10 10:31:33;;;;;;;11.20;7.73;;;;;;;;;;5035597;28;20587;-64
2020/12/10 10:33:59;;;;;;;13.30;8.70;;;;;;;;;;5035345;28;20237;-64
2020/12/10 10:36:24;;;;;;;12.30;8.33;;;;;;;;;;5034998;28;20179;-62
2020/12/10 10:38:50;;;;;;;13.90;8.50;;;;;;;;;;5035288;28;20582;-64
2020/12/10 10:41:15;;;;;;;9.77;7.33;;;;;;;;;;5035331;28;20182;-63
2020/12/10 10:43:40;;;;;;;11.57;7.50;;;;;;;;;;5034863;28;20209;-62
2020/12/10 10:46:06;;;;;;;14.93;7.40;;;;;;;;;;5035179;28;20190;-62
2020/12/10 10:48:31;;;;;;;14.13;7.70;;;;;;;;;;5034792;28;20179;-62
2020/12/10 10:50:57;;;;;;;10.80;7.30;;;;;;;;;;5034849;28;20650;-63
2020/12/10 10:53:22;;;;;;;14.13;8.73;;;;;;;;;;5034706;28;20201;-63
2020/12/10 10:55:48;;;;;;;9.43;7.03;;;;;;;;;;5034970;28;20183;-63
2020/12/10 10:58:14;;;;;;;10.40;7.60;;;;;;;;;;5034827;28;20186;-63
2020/12/10 11:00:39;;;;;;;10.63;7.87;;;;;;;;;;5034922;28;20186;-63
2020/12/10 11:03:04;;;;;;;12.97;7.90;;;;;;;;;;5034822;28;20175;-62
2020/12/10 11:05:29;;;;;;;11.50;7.43;;;;;;;;;;5034620;28;20175;-63
2020/12/10 11:07:57;;;;;;;10.90;6.93;;;;;;;;;;5034704;28;20305;-63
2020/12/10 11:10:23;;;;;;;10.87;8.13;;;;;;;;;;5034520;28;20186;-63
2020/12/10 11:12:50;;;;;;;12.67;6.73;;;;;;;;;;5034482;28;20202;-63
2020/12/10 11:15:15;;;;;;;10.87;7.20;;;;;;;;;;5034302;28;20183;-62
2020/12/10 11:17:41;;;;;;;12.37;7.53;;;;;;;;;;5034962;28;20651;-63
2020/12/10 11:20:07;;;;;;;8.87;6.83;;;;;;;;;;5034416;28;20178;-61
2020/12/10 11:22:34;;;;;;;11.03;6.43;;;;;;;;;;5034663;28;20186;-63
2020/12/10 11:24:59;;;;;;;9.93;6.73;;;;;;;;;;5034288;28;20175;-63
2020/12/10 11:27:24;;;;;;;9.83;7.10;;;;;;;;;;5034292;28;20511;-63
2020/12/10 11:29:50;;;;;;;8.80;6.93;;;;;;;;;;5034323;28;20487;-63
2020/12/10 11:32:15;;;;;;;7.70;6.07;;;;;;;;;;5034023;28;20179;-63
2020/12/10 11:34:41;;;;;;;9.67;6.67;;;;;;;;;;5034169;28;20249;-63
2020/12/10 11:37:06;;;;;;;14.50;6.83;;;;;;;;;;5034229;28;20274;-62
2020/12/10 11:39:31;;;;;;;10.37;6.60;;;;;;;;;;5034212;28;20187;-63
2020/12/10 11:41:57;;;;;;;11.10;6.13;;;;;;;;;;5034105;28;20197;-62
2020/12/10 11:44:22;;;;;;;11.33;6.23;;;;;;;;;;5033885;28;20178;-62
2020/12/10 11:46:48;;;;;;;11.50;6.80;;;;;;;;;;5033965;28;20651;-65
2020/12/10 11:49:13;;;;;;;11.63;6.30;;;;;;;;;;5034382;28;20190;-61
2020/12/10 11:51:39;;;;;;;9.30;6.20;;;;;;;;;;5033981;28;20229;-62
2020/12/10 11:54:04;;;;;;;9.03;6.30;;;;;;;;;;5033425;28;20682;-64
2020/12/10 11:56:30;;;;;;;8.90;5.80;;;;;;;;;;5033610;28;20265;-62
2020/12/10 11:58:55;;;;;;;9.30;6.13;;;;;;;;;;5033862;28;20539;-63
2020/12/10 12:01:21;;;;;;;12.13;6.50;;;;;;;;;;5033549;28;20638;-65
2020/12/10 12:03:46;;;;;;;10.17;6.27;;;;;;;;;;5033779;28;20280;-63
2020/12/10 12:06:11;;;;;;;13.07;6.43;;;;;;;;;;5033464;28;20195;-64
2020/12/10 12:08:36;;;;;;;10.97;6.73;;;;;;;;;;5032354;28;20230;-63
2020/12/10 12:11:02;;;;;;;9.50;6.30;;;;;;;;;;5033411;28;20599;-63
2020/12/10 12:13:29;;;;;;;10.73;6.23;;;;;;;;;;5033200;28;20194;-63
2020/12/10 12:15:54;;;;;;;10.10;6.50;;;;;;;;;;5033376;28;20178;-62
2020/12/10 12:18:20;;;;;;;10.90;6.27;;;;;;;;;;5033326;28;20583;-62
2020/12/10 12:20:46;;;;;;;10.43;6.43;;;;;;;;;;5033333;28;20209;-64
2020/12/10 12:23:12;;;;;;;7.53;5.93;;;;;;;;;;5033607;28;20194;-63
2020/12/10 12:25:37;;;;;;;10.10;6.03;;;;;;;;;;5033479;28;20186;-64
2020/12/10 12:28:03;;;;;;;8.07;5.70;;;;;;;;;;5033510;28;20178;-62
2020/12/10 12:30:29;;;;;;;11.03;6.10;;;;;;;;;;5033132;28;20229;-63
2020/12/10 12:32:54;;;;;;;10.57;6.17;;;;;;;;;;5033106;28;20191;-63
2020/12/10 12:35:20;;;;;;;8.23;5.83;;;;;;;;;;5033236;28;20186;-64
2020/12/10 12:37:46;;;;;;;8.03;5.07;;;;;;;;;;5033056;28;20171;-63
2020/12/10 12:40:11;;;;;;;9.50;5.67;;;;;;;;;;5033207;28;20190;-63
2020/12/10 12:42:40;;;;;;;8.20;5.60;;;;;;;;;;5033017;28;20178;-62
2020/12/10 12:45:05;;;;;;;8.20;5.70;;;;;;;;;;5033401;28;20642;-62
2020/12/10 12:47:30;;;;;;;8.37;5.60;;;;;;;;;;5033098;28;20226;-64
2020/12/10 12:49:56;;;;;;;7.60;5.17;;;;;;;;;;5033010;28;20175;-64
2020/12/10 12:52:24;;;;;;;8.27;6.10;;;;;;;;;;5033306;28;20175;-64
2020/12/10 12:54:50;;;;;;;7.67;5.53;;;;;;;;;;5033293;28;20202;-64
2020/12/10 12:57:18;;;;;;;7.23;5.27;;;;;;;;;;5033070;28;20628;-66
2020/12/10 12:59:44;;;;;;;8.77;5.13;;;;;;;;;;5031675;28;20194;-64
2020/12/10 13:02:10;;;;;;;8.77;5.93;;;;;;;;;;5033560;28;20221;-62
2020/12/10 13:04:35;;;;;;;11.43;5.83;;;;;;;;;;5033385;28;20543;-63
2020/12/10 13:07:00;;;;;;;7.87;5.20;;;;;;;;;;5033149;28;20195;-61
2020/12/10 13:09:26;;;;;;;8.33;5.00;;;;;;;;;;5033380;28;20221;-62
2020/12/10 13:11:56;;;;;;;8.23;5.70;;;;;;;;;;5033257;28;20235;-62
2020/12/10 13:14:21;;;;;;;14.70;6.07;;;;;;;;;;5033136;28;20628;-62
2020/12/10 13:16:46;;;;;;;10.20;6.30;;;;;;;;;;5032855;28;20217;-62
2020/12/10 13:19:13;;;;;;;11.80;6.57;;;;;;;;;;5033569;28;20167;-62
2020/12/10 13:21:38;;;;;;;9.33;6.63;;;;;;;;;;5036839;28;20586;-62
2020/12/10 13:24:04;;;;;;;9.23;6.83;;;;;;;;;;5036429;28;20171;-64
2020/12/10 13:26:31;;;;;;;12.77;7.23;;;;;;;;;;5036340;28;20175;-62
2020/12/10 13:28:57;;;;;;;11.60;7.37;;;;;;;;;;5036562;28;20540;-63
2020/12/10 13:31:27;;;;;;;12.60;7.67;;;;;;;;;;5036462;28;20175;-62
2020/12/10 13:33:52;;;;;;;10.40;7.53;;;;;;;;;;5036151;28;20602;-64
2020/12/10 13:36:17;;;;;;;12.33;8.47;;;;;;;;;;5036254;28;20179;-64
2020/12/10 13:38:43;;;;;;;9.70;7.47;;;;;;;;;;5036375;28;20218;-61
2020/12/10 13:41:08;;;;;;;15.47;8.37;;;;;;;;;;5036398;28;20171;-62
2020/12/10 13:43:34;;;;;;;12.03;7.97;;;;;;;;;;5036449;28;20171;-63
2020/12/10 13:46:00;;;;;;;13.37;8.43;;;;;;;;;;5036305;28;20175;-61
2020/12/10 13:48:25;;;;;;;13.63;8.10;;;;;;;;;;5036278;28;20210;-62
2020/12/10 13:50:51;;;;;;;15.57;8.77;;;;;;;;;;5036549;28;20221;-63
2020/12/10 13:53:16;;;;;;;10.03;7.33;;;;;;;;;;5036396;28;20202;-61
2020/12/10 13:55:42;;;;;;;14.03;8.73;;;;;;;;;;5035695;28;20258;-64
2020/12/10 13:58:08;;;;;;;13.83;8.00;;;;;;;;;;5035825;28;20181;-64
2020/12/10 14:00:33;;;;;;;11.07;8.77;;;;;;;;;;5036032;28;20179;-63
2020/12/10 14:02:59;;;;;;;12.43;8.97;;;;;;;;;;5035711;28;20171;-62
2020/12/10 14:05:24;;;;;;;13.40;9.70;;;;;;;;;;5035813;28;20190;-61
2020/12/10 14:07:49;;;;;;;12.10;9.40;;;;;;;;;;5035188;28;20238;-62
2020/12/10 14:10:15;;;;;;;13.57;9.77;;;;;;;;;;5035555;28;20178;-61
2020/12/10 14:12:42;;;;;;;14.87;10.23;;;;;;;;;;5035425;28;20171;-61
2020/12/10 14:15:07;;;;;;;11.83;9.53;;;;;;;;;;5035772;28;20515;-65
2020/12/10 14:17:32;;;;;;;15.77;9.17;;;;;;;;;;5035902;28;20175;-64
2020/12/10 14:19:57;;;;;;;12.67;9.60;;;;;;;;;;5036036;28;20639;-64
2020/12/10 14:22:23;;;;;;;13.83;9.53;;;;;;;;;;5035736;28;20210;-63